GCFV METAR and TAF | Updated Today

GCFV METAR

Fuerteventura Airport

Observation time: 33 min. ago

GCFV 301830Z 05008KT 9999 FEW030 19/13 Q1023

Need help? Read our tutorial on how to read METARs or read the parsed version below.

Fuerteventura Airport (GCFV) METAR

  • Weather conditions on Tue, 30 Nov 2021 18:30:00 +0000 (33 min. ago):
  • Present conditions: Dry
  • Clouds: A few at 914 meters
  • Visibility: Greater than 10 km
  • Wind: 50 degrees at 8 knots
  • Temperature: 19 celsius
  • Dew point: 13 celsius
  • Pressure: 1023 millibars
  • Remarks: None


Useful to know...

GCFV TAF

Fuerteventura Airport

TAF GCFV 301400Z 3015/0115 06009KT 9999 SCT035 TX22/0114Z TN15/0106Z
Observation time: 5:03 hr. ago
Need help? Read our tutorial on how to read TAFs or read the parsed version below.

Parsed version of TAF for Fuerteventura Airport (GCFV)

  • From 30 November at 15:00 UTC, to day 01 of the month at 15:00 UTC
  • Clouds: Scattered at 1067 meters
  • Visibility: Greater than 10 km
  • Wind: 60 degrees at 9